createdAt,value
2018-09-02T00:01:56.795Z,63.00
2018-09-02T00:04:24.208Z,63.00
2018-09-02T00:06:51.576Z,62.70
2018-09-02T00:09:18.979Z,63.80
2018-09-02T00:11:46.516Z,63.80
2018-09-02T00:14:13.943Z,63.70
2018-09-02T00:16:41.551Z,64.50
2018-09-02T00:19:08.920Z,63.90
2018-09-02T00:21:36.320Z,63.60
2018-09-02T00:24:03.732Z,63.80
2018-09-02T00:26:31.087Z,63.90
2018-09-02T00:28:59.694Z,64.90
2018-09-02T00:31:27.079Z,65.10
2018-09-02T00:33:54.485Z,64.50
2018-09-02T00:36:21.864Z,63.60
2018-09-02T00:38:49.219Z,64.00
2018-09-02T00:41:16.584Z,64.10
2018-09-02T00:43:43.984Z,63.50
2018-09-02T00:46:11.462Z,63.50
2018-09-02T00:48:38.877Z,64.10
2018-09-02T00:51:06.268Z,63.40
2018-09-02T00:53:33.752Z,64.60
2018-09-02T00:56:01.149Z,64.90
2018-09-02T00:58:28.543Z,65.60
2018-09-02T01:00:55.928Z,65.40
2018-09-02T01:03:24.126Z,64.80
2018-09-02T01:05:51.826Z,64.20
2018-09-02T01:08:19.299Z,64.70
2018-09-02T01:10:47.360Z,64.40
2018-09-02T01:13:14.772Z,64.40
2018-09-02T01:15:42.597Z,65.20
2018-09-02T01:18:09.955Z,65.40
2018-09-02T01:20:37.460Z,64.50
2018-09-02T01:23:05.293Z,65.00
2018-09-02T01:25:32.592Z,64.60
2018-09-02T01:27:59.986Z,65.10
2018-09-02T01:30:27.370Z,64.20
2018-09-02T01:32:54.745Z,64.50
2018-09-02T01:35:27.968Z,64.50
2018-09-02T01:37:55.361Z,65.30
2018-09-02T01:40:23.901Z,65.50
2018-09-02T01:42:51.285Z,65.20
2018-09-02T01:45:18.715Z,64.80
2018-09-02T01:47:46.388Z,65.30
2018-09-02T01:50:13.794Z,64.90
2018-09-02T01:55:10.808Z,66.40
2018-09-02T01:57:38.255Z,66.80
2018-09-02T02:00:05.675Z,66.30
2018-09-02T02:02:33.027Z,66.60
2018-09-02T02:05:00.396Z,66.00
2018-09-02T02:07:27.773Z,66.30
2018-09-02T02:09:55.128Z,66.00
2018-09-02T02:12:22.506Z,66.40
2018-09-02T02:14:49.855Z,66.30
2018-09-02T02:17:17.281Z,66.20
2018-09-02T02:19:44.697Z,66.10
2018-09-02T02:22:12.139Z,66.90
2018-09-02T02:24:39.536Z,66.60
2018-09-02T02:27:06.976Z,66.90
2018-09-02T02:29:34.378Z,66.80
2018-09-02T02:32:01.740Z,67.10
2018-09-02T02:34:29.087Z,67.00
2018-09-02T02:36:57.240Z,66.00
2018-09-02T02:39:24.611Z,65.80
2018-09-02T02:41:51.971Z,66.50
2018-09-02T02:44:19.419Z,66.90
2018-09-02T02:46:46.795Z,66.40
2018-09-02T02:49:14.168Z,66.10
2018-09-02T02:51:41.551Z,68.10
2018-09-02T02:54:08.951Z,67.20
2018-09-02T02:56:36.324Z,66.20
2018-09-02T02:59:04.118Z,66.80
2018-09-02T03:01:31.513Z,67.70
2018-09-02T03:03:58.896Z,66.90
2018-09-02T03:06:26.255Z,67.30
2018-09-02T03:08:53.626Z,67.80
2018-09-02T03:11:20.976Z,67.30
2018-09-02T03:13:48.344Z,68.20
2018-09-02T03:16:15.776Z,67.70
2018-09-02T03:18:43.187Z,67.60
2018-09-02T03:21:10.569Z,67.80
2018-09-02T03:23:37.932Z,68.10
2018-09-02T03:26:05.303Z,68.10
2018-09-02T03:28:32.673Z,68.70
2018-09-02T03:31:00.167Z,68.20
2018-09-02T03:33:27.461Z,68.00
2018-09-02T03:35:54.915Z,67.40
2018-09-02T03:38:22.327Z,67.30
2018-09-02T03:40:49.683Z,67.20
2018-09-02T03:43:17.059Z,67.20
2018-09-02T03:45:44.431Z,67.60
2018-09-02T03:48:11.830Z,67.50
2018-09-02T03:50:39.272Z,67.50
2018-09-02T03:53:06.641Z,67.30
2018-09-02T03:55:34.184Z,67.80
2018-09-02T03:58:01.626Z,67.20
2018-09-02T04:00:29.010Z,67.30
2018-09-02T04:02:56.444Z,67.70
2018-09-02T04:05:23.860Z,67.00
2018-09-02T04:07:51.279Z,66.90
2018-09-02T04:10:18.784Z,67.20
2018-09-02T04:12:46.168Z,66.80
2018-09-02T04:15:13.571Z,67.10
2018-09-02T04:17:41.018Z,66.80
2018-09-02T04:20:08.668Z,68.20
2018-09-02T04:22:36.044Z,67.50
2018-09-02T04:25:03.491Z,67.30
2018-09-02T04:27:30.874Z,68.10
2018-09-02T04:29:58.244Z,68.50
2018-09-02T04:32:25.698Z,68.50
2018-09-02T04:34:53.103Z,68.10
2018-09-02T04:37:20.500Z,69.10
2018-09-02T04:39:47.869Z,69.10
2018-09-02T04:42:15.239Z,69.10
2018-09-02T04:44:42.647Z,68.60
2018-09-02T04:47:10.251Z,68.50
2018-09-02T04:49:37.655Z,68.30
2018-09-02T04:52:05.036Z,69.30
2018-09-02T04:54:32.712Z,69.40
2018-09-02T04:56:59.858Z,68.50
2018-09-02T04:59:27.282Z,68.70
2018-09-02T05:01:54.679Z,68.50
2018-09-02T05:04:22.074Z,68.50
2018-09-02T05:06:49.455Z,68.40
2018-09-02T05:09:16.891Z,68.80
2018-09-02T05:11:44.274Z,70.20
2018-09-02T05:14:11.911Z,70.40
2018-09-02T05:16:39.291Z,70.20
2018-09-02T05:19:06.679Z,71.20
2018-09-02T05:21:34.034Z,70.80
2018-09-02T05:24:01.416Z,70.30
2018-09-02T05:26:28.784Z,70.40
2018-09-02T05:28:56.243Z,70.70
2018-09-02T05:31:23.742Z,69.60
2018-09-02T05:33:51.104Z,71.40
2018-09-02T05:36:18.468Z,71.20
2018-09-02T05:38:46.414Z,71.60
2018-09-02T05:41:13.771Z,71.20
2018-09-02T05:43:41.152Z,70.70
2018-09-02T05:46:08.548Z,71.40
2018-09-02T05:48:37.484Z,70.40
2018-09-02T05:51:05.423Z,70.40
2018-09-02T05:53:33.320Z,70.50
2018-09-02T05:56:00.712Z,71.40
2018-09-02T05:58:28.105Z,70.70
2018-09-02T06:00:55.584Z,70.40
2018-09-02T06:03:22.973Z,70.80
2018-09-02T06:05:50.390Z,70.00
2018-09-02T06:08:17.752Z,70.20
2018-09-02T06:10:45.230Z,69.90
2018-09-02T06:13:12.607Z,70.70
2018-09-02T06:15:39.973Z,70.60
2018-09-02T06:18:07.363Z,71.20
2018-09-02T06:20:34.759Z,70.90
2018-09-02T06:23:02.159Z,69.90
2018-09-02T06:25:29.530Z,70.70
2018-09-02T06:27:56.979Z,70.40
2018-09-02T06:30:24.360Z,69.80
2018-09-02T06:32:51.783Z,71.40
2018-09-02T06:35:19.164Z,72.60
2018-09-02T06:37:46.552Z,71.40
2018-09-02T06:40:13.937Z,71.00
2018-09-02T06:42:41.323Z,71.10
2018-09-02T06:45:08.719Z,70.80
2018-09-02T06:47:36.094Z,72.80
2018-09-02T06:50:03.460Z,71.00
2018-09-02T06:52:30.854Z,70.70
2018-09-02T06:54:58.219Z,71.50
2018-09-02T06:57:25.622Z,69.90
2018-09-02T06:59:53.020Z,70.60
2018-09-02T07:02:20.439Z,70.00
2018-09-02T07:04:47.824Z,71.20
2018-09-02T07:07:15.246Z,72.60
2018-09-02T07:09:42.601Z,70.90
2018-09-02T07:12:10.490Z,70.10
2018-09-02T07:14:37.887Z,70.90
2018-09-02T07:17:05.263Z,70.90
2018-09-02T07:19:32.630Z,69.80
2018-09-02T07:22:00.021Z,70.30
2018-09-02T07:24:27.388Z,69.50
2018-09-02T07:26:54.770Z,70.80
2018-09-02T07:29:22.123Z,72.00
2018-09-02T07:31:49.484Z,71.60
2018-09-02T07:34:16.901Z,70.00
2018-09-02T07:36:44.424Z,70.30
2018-09-02T07:39:11.816Z,70.50
2018-09-02T07:41:39.195Z,69.40
2018-09-02T07:44:06.871Z,70.20
2018-09-02T07:46:34.194Z,70.00
2018-09-02T07:49:01.551Z,71.20
2018-09-02T07:51:28.970Z,69.80
2018-09-02T07:53:56.355Z,69.20
2018-09-02T07:56:23.719Z,68.90
2018-09-02T07:58:51.092Z,69.60
2018-09-02T08:01:18.475Z,70.60
2018-09-02T08:03:45.887Z,69.20
2018-09-02T08:06:13.281Z,69.10
2018-09-02T08:08:40.624Z,69.70
2018-09-02T08:11:08.048Z,69.50
2018-09-02T08:13:35.419Z,69.90
2018-09-02T08:16:02.781Z,69.00
2018-09-02T08:18:30.152Z,70.70
2018-09-02T08:20:57.530Z,69.50
2018-09-02T08:23:24.955Z,69.90
2018-09-02T08:25:52.324Z,69.00
2018-09-02T08:28:19.703Z,68.90
2018-09-02T08:30:47.133Z,69.30
2018-09-02T08:33:14.488Z,70.50
2018-09-02T08:35:41.839Z,70.30
2018-09-02T08:38:09.237Z,69.20
2018-09-02T08:40:36.739Z,69.50
2018-09-02T08:43:04.125Z,71.20
2018-09-02T08:45:31.520Z,69.50
2018-09-02T08:47:58.907Z,70.20
2018-09-02T08:50:26.302Z,69.40
2018-09-02T08:52:53.671Z,69.30
2018-09-02T08:55:21.085Z,69.60
2018-09-02T08:57:48.445Z,70.60
2018-09-02T09:00:17.244Z,69.70
2018-09-02T09:02:45.096Z,69.20
2018-09-02T09:05:12.511Z,70.90
2018-09-02T09:07:40.089Z,69.00
2018-09-02T09:10:07.620Z,68.70
2018-09-02T09:12:34.999Z,69.10
2018-09-02T09:15:02.412Z,69.30
2018-09-02T09:17:29.776Z,68.80
2018-09-02T09:19:57.166Z,68.70
2018-09-02T09:22:24.526Z,68.60
2018-09-02T09:24:51.920Z,69.30
2018-09-02T09:27:19.306Z,68.80
2018-09-02T09:29:46.670Z,68.70
2018-09-02T09:32:14.109Z,68.40
2018-09-02T09:34:41.447Z,68.60
2018-09-02T09:37:08.807Z,68.20
2018-09-02T09:39:36.164Z,68.10
2018-09-02T09:42:03.520Z,68.10
2018-09-02T09:44:30.924Z,67.90
2018-09-02T09:46:58.276Z,68.10
2018-09-02T09:49:25.707Z,67.80
2018-09-02T09:51:53.071Z,68.00
2018-09-02T09:54:21.052Z,67.70
2018-09-02T09:56:48.412Z,67.20
2018-09-02T09:59:15.837Z,67.00
2018-09-02T10:01:43.207Z,67.10
2018-09-02T10:04:10.555Z,67.20
2018-09-02T10:06:37.919Z,67.10
2018-09-02T10:09:08.281Z,67.30
2018-09-02T10:11:35.706Z,66.80
2018-09-02T10:14:03.076Z,66.70
2018-09-02T10:16:30.503Z,66.40
2018-09-02T10:18:57.846Z,66.30
2018-09-02T10:21:25.277Z,66.00
2018-09-02T10:23:52.652Z,66.70
2018-09-02T10:26:20.012Z,65.80
2018-09-02T10:28:47.396Z,65.80
2018-09-02T10:31:14.773Z,63.80
2018-09-02T10:33:42.132Z,64.50
2018-09-02T10:36:09.574Z,64.20
2018-09-02T10:38:36.931Z,64.10
2018-09-02T10:41:04.574Z,63.50
2018-09-02T10:43:31.926Z,63.60
2018-09-02T10:45:59.307Z,60.60
2018-09-02T10:48:26.710Z,62.10
2018-09-02T10:50:54.071Z,63.40
2018-09-02T10:53:21.433Z,62.80
2018-09-02T10:55:48.797Z,61.90
2018-09-02T10:58:16.157Z,61.40
2018-09-02T11:00:43.519Z,61.40
2018-09-02T11:03:10.879Z,61.20
2018-09-02T11:05:38.271Z,59.80
2018-09-02T11:08:05.619Z,61.10
2018-09-02T11:10:32.996Z,61.70
2018-09-02T11:13:00.365Z,59.40
2018-09-02T11:15:27.788Z,59.30
2018-09-02T11:17:55.212Z,56.90
2018-09-02T11:20:22.615Z,59.40
2018-09-02T11:22:50.021Z,58.70
2018-09-02T11:25:17.371Z,58.20
2018-09-02T11:27:44.743Z,59.40
2018-09-02T11:30:12.091Z,56.50
2018-09-02T11:32:39.492Z,57.10
2018-09-02T11:35:06.876Z,56.40
2018-09-02T11:37:34.228Z,55.80
2018-09-02T11:40:01.808Z,57.70
2018-09-02T11:42:29.250Z,59.00
2018-09-02T11:44:56.724Z,59.70
2018-09-02T11:47:24.116Z,59.90
2018-09-02T11:49:51.649Z,59.70
2018-09-02T11:52:19.006Z,57.40
2018-09-02T11:54:46.368Z,56.30
2018-09-02T11:57:13.770Z,56.70
2018-09-02T11:59:41.161Z,58.90
2018-09-02T12:02:08.536Z,57.30
2018-09-02T12:04:35.910Z,56.90
2018-09-02T12:07:03.537Z,58.00
2018-09-02T12:09:30.890Z,57.90
2018-09-02T12:11:58.256Z,56.70
2018-09-02T12:14:25.688Z,58.40
2018-09-02T12:16:53.071Z,53.80
2018-09-02T12:19:21.615Z,56.20
2018-09-02T12:21:49.082Z,52.50
2018-09-02T12:24:16.722Z,55.50
2018-09-02T12:26:45.944Z,55.50
2018-09-02T12:29:13.328Z,56.30
2018-09-02T12:31:41.111Z,55.40
2018-09-02T12:34:08.434Z,56.00
2018-09-02T12:36:35.808Z,54.90
2018-09-02T12:39:03.883Z,55.20
2018-09-02T12:41:31.228Z,56.40
2018-09-02T12:43:58.577Z,54.20
2018-09-02T12:46:25.931Z,54.30
2018-09-02T12:48:53.746Z,55.60
2018-09-02T12:51:21.179Z,54.00
2018-09-02T12:53:48.588Z,55.00
2018-09-02T12:56:15.989Z,53.20
2018-09-02T12:58:43.367Z,51.10
2018-09-02T13:01:10.820Z,51.50
2018-09-02T13:03:38.138Z,51.60
2018-09-02T13:06:05.500Z,49.60
2018-09-02T13:08:32.871Z,52.40
2018-09-02T13:11:00.256Z,50.70
2018-09-02T13:13:27.659Z,52.80
2018-09-02T13:15:55.024Z,49.50
2018-09-02T13:18:22.395Z,52.50
2018-09-02T13:20:49.760Z,51.20
2018-09-02T13:23:17.115Z,50.60
2018-09-02T13:25:44.485Z,51.60
2018-09-02T13:28:11.893Z,51.30
2018-09-02T13:30:39.303Z,51.80
2018-09-02T13:33:06.701Z,51.60
2018-09-02T13:35:34.060Z,52.70
2018-09-02T13:38:01.431Z,52.50
2018-09-02T13:40:28.866Z,52.10
2018-09-02T13:42:56.285Z,51.80
2018-09-02T13:45:23.626Z,51.20
2018-09-02T13:47:51.075Z,50.10
2018-09-02T13:50:18.458Z,51.00
2018-09-02T13:52:45.865Z,50.60
2018-09-02T13:55:13.220Z,50.40
2018-09-02T13:57:40.583Z,50.20
2018-09-02T14:00:07.975Z,50.30
2018-09-02T14:02:36.276Z,52.30
2018-09-02T14:05:03.646Z,50.80
2018-09-02T14:07:31.004Z,49.30
2018-09-02T14:09:59.107Z,49.50
2018-09-02T14:12:26.653Z,50.10
2018-09-02T14:14:54.024Z,49.50
2018-09-02T14:17:21.485Z,51.10
2018-09-02T14:19:48.845Z,49.80
2018-09-02T14:22:16.159Z,46.70
2018-09-02T14:24:43.520Z,51.40
2018-09-02T14:27:10.915Z,50.60
2018-09-02T14:29:39.624Z,49.00
2018-09-02T14:32:06.957Z,49.00
2018-09-02T14:34:34.456Z,48.60
2018-09-02T14:37:01.816Z,47.90
2018-09-02T14:39:29.179Z,49.60
2018-09-02T14:41:56.527Z,49.40
2018-09-02T14:44:23.872Z,48.80
2018-09-02T14:46:51.243Z,51.90
2018-09-02T14:49:18.598Z,50.50
2018-09-02T14:51:45.966Z,49.80
2018-09-02T14:54:13.334Z,50.00
2018-09-02T14:56:40.692Z,48.00
2018-09-02T14:59:08.048Z,50.50
2018-09-02T15:01:35.434Z,49.40
2018-09-02T15:04:02.843Z,49.60
2018-09-02T15:06:30.249Z,49.30
2018-09-02T15:08:57.623Z,51.10
2018-09-02T15:11:25.845Z,52.00
2018-09-02T15:13:53.239Z,51.20
2018-09-02T15:16:20.652Z,50.90
2018-09-02T15:18:48.068Z,48.40
2018-09-02T15:21:15.639Z,48.70
2018-09-02T15:23:42.833Z,47.50
2018-09-02T15:26:10.752Z,50.20
2018-09-02T15:28:38.103Z,50.30
2018-09-02T15:31:05.492Z,51.50
2018-09-02T15:33:32.836Z,50.40
2018-09-02T15:36:00.177Z,49.70
2018-09-02T15:38:27.532Z,48.50
2018-09-02T15:40:54.934Z,47.50
2018-09-02T15:43:22.319Z,50.00
2018-09-02T15:45:49.692Z,49.70
2018-09-02T15:48:17.086Z,49.90
2018-09-02T15:50:44.450Z,50.00
2018-09-02T15:53:11.803Z,48.60
2018-09-02T15:55:39.217Z,49.30
2018-09-02T15:58:06.593Z,50.30
2018-09-02T16:00:33.964Z,49.70
2018-09-02T16:03:01.320Z,45.60
2018-09-02T16:05:28.743Z,47.20
2018-09-02T16:07:56.114Z,49.90
2018-09-02T16:10:23.482Z,50.90
2018-09-02T16:12:50.844Z,50.70
2018-09-02T16:15:18.198Z,49.20
2018-09-02T16:17:45.571Z,50.70
2018-09-02T16:20:12.982Z,51.40
2018-09-02T16:22:40.335Z,50.20
2018-09-02T16:25:08.832Z,51.10
2018-09-02T16:27:36.611Z,50.90
2018-09-02T16:30:04.881Z,51.20
2018-09-02T16:32:33.476Z,51.10
2018-09-02T16:35:01.587Z,51.20
2018-09-02T16:37:30.801Z,51.50
2018-09-02T16:40:08.729Z,51.40
2018-09-02T16:42:38.251Z,51.70
2018-09-02T16:45:07.061Z,50.50
2018-09-02T16:47:34.468Z,50.80
2018-09-02T16:50:02.019Z,51.30
2018-09-02T16:52:50.563Z,50.30
2018-09-02T16:58:04.051Z,50.20
2018-09-02T17:00:34.015Z,51.30
2018-09-02T17:03:17.413Z,50.80
2018-09-02T17:05:44.921Z,52.30
2018-09-02T17:08:26.609Z,51.10
2018-09-02T17:11:05.876Z,52.10
2018-09-02T17:13:34.377Z,51.90
2018-09-02T17:16:02.237Z,52.30
2018-09-02T17:18:31.386Z,51.40
2018-09-02T17:21:00.443Z,51.20
2018-09-02T17:23:28.457Z,52.30
2018-09-02T17:25:55.928Z,51.30
2018-09-02T17:28:23.689Z,51.00
2018-09-02T17:30:52.385Z,51.70
2018-09-02T17:33:19.986Z,51.80
2018-09-02T17:35:50.436Z,52.50
2018-09-02T17:38:17.862Z,51.60
2018-09-02T17:40:45.224Z,52.50
2018-09-02T17:43:13.215Z,52.10
2018-09-02T17:45:40.664Z,52.70
2018-09-02T17:48:09.287Z,53.20
2018-09-02T17:50:36.677Z,53.00
2018-09-02T17:53:04.043Z,53.30
2018-09-02T17:55:31.406Z,52.60
2018-09-02T17:57:58.830Z,53.30
2018-09-02T18:00:44.560Z,53.00
2018-09-02T18:03:11.915Z,53.10
2018-09-02T18:05:39.292Z,53.60
2018-09-02T18:08:06.682Z,53.80
2018-09-02T18:10:34.507Z,54.20
2018-09-02T18:13:01.903Z,54.20
2018-09-02T18:15:29.367Z,53.80
2018-09-02T18:17:56.717Z,54.00
2018-09-02T18:20:24.192Z,53.80
2018-09-02T18:22:51.727Z,54.10
2018-09-02T18:25:19.123Z,54.30
2018-09-02T18:27:49.721Z,54.30
2018-09-02T18:30:17.423Z,54.40
2018-09-02T18:32:45.124Z,54.40
2018-09-02T18:35:12.758Z,54.20
2018-09-02T18:37:41.321Z,54.60
2018-09-02T18:40:08.782Z,54.60
2018-09-02T18:42:36.385Z,54.70
2018-09-02T18:45:04.307Z,54.80
2018-09-02T18:47:32.023Z,54.80
2018-09-02T18:49:59.523Z,54.80
2018-09-02T18:52:26.923Z,54.70
2018-09-02T18:54:54.288Z,54.90
2018-09-02T18:57:21.683Z,54.90
2018-09-02T18:59:49.342Z,55.00
2018-09-02T19:02:17.919Z,54.90
2018-09-02T19:04:45.617Z,55.00
2018-09-02T19:07:13.268Z,55.10
2018-09-02T19:09:41.027Z,55.20
2018-09-02T19:12:08.616Z,55.20
2018-09-02T19:14:36.665Z,55.30
2018-09-02T19:17:04.391Z,55.30
2018-09-02T19:19:32.084Z,55.10
2018-09-02T19:21:59.667Z,55.60
2018-09-02T19:24:27.300Z,55.60
2018-09-02T19:26:55.828Z,55.60
2018-09-02T19:29:23.244Z,55.80
2018-09-02T19:31:50.688Z,55.60
2018-09-02T19:34:18.235Z,55.70
2018-09-02T19:36:45.920Z,55.80
2018-09-02T19:39:13.384Z,55.90
2018-09-02T19:41:40.970Z,56.50
2018-09-02T19:44:08.564Z,56.00
2018-09-02T19:46:37.455Z,56.10
2018-09-02T19:49:05.982Z,56.20
2018-09-02T19:51:33.481Z,56.40
2018-09-02T19:54:01.017Z,56.20
2018-09-02T19:56:28.447Z,56.40
2018-09-02T19:58:55.870Z,56.50
2018-09-02T20:01:23.252Z,56.60
2018-09-02T20:03:50.634Z,56.30
2018-09-02T20:06:18.034Z,56.80
2018-09-02T20:08:45.550Z,56.70
2018-09-02T20:11:12.941Z,56.80
2018-09-02T20:13:40.343Z,56.60
2018-09-02T20:16:07.931Z,56.80
2018-09-02T20:18:35.832Z,57.00
2018-09-02T20:21:03.312Z,56.90
2018-09-02T20:23:30.683Z,57.20
2018-09-02T20:25:58.065Z,57.50
2018-09-02T20:28:25.470Z,57.40
2018-09-02T20:30:52.814Z,57.50
2018-09-02T20:33:20.224Z,57.50
2018-09-02T20:35:47.662Z,57.60
2018-09-02T20:38:15.063Z,57.50
2018-09-02T20:40:42.434Z,57.20
2018-09-02T20:43:09.812Z,57.40
2018-09-02T20:45:37.147Z,57.60
2018-09-02T20:48:04.617Z,58.00
2018-09-02T20:50:32.039Z,58.10
2018-09-02T20:52:59.430Z,58.00
2018-09-02T20:55:26.834Z,57.80
2018-09-02T20:57:54.236Z,57.80
2018-09-02T21:00:21.863Z,58.40
2018-09-02T21:02:49.297Z,58.20
2018-09-02T21:05:17.036Z,57.80
2018-09-02T21:07:44.549Z,58.50
2018-09-02T21:10:11.908Z,58.60
2018-09-02T21:12:39.286Z,58.60
2018-09-02T21:15:06.670Z,58.70
2018-09-02T21:17:34.031Z,59.10
2018-09-02T21:20:01.427Z,58.50
2018-09-02T21:22:28.823Z,58.70
2018-09-02T21:24:56.187Z,59.20
2018-09-02T21:27:23.799Z,59.30
2018-09-02T21:29:51.190Z,59.30
2018-09-02T21:32:18.556Z,58.90
2018-09-02T21:34:45.916Z,59.60
2018-09-02T21:37:13.517Z,59.30
2018-09-02T21:39:40.831Z,59.70
2018-09-02T21:42:08.177Z,59.90
2018-09-02T21:44:35.543Z,59.50
2018-09-02T21:47:03.490Z,59.30
2018-09-02T21:49:30.876Z,59.50
2018-09-02T21:51:58.226Z,59.50
2018-09-02T21:54:25.611Z,60.40
2018-09-02T21:56:53.039Z,59.60
2018-09-02T21:59:20.487Z,60.70
2018-09-02T22:01:47.876Z,60.40
2018-09-02T22:04:15.224Z,60.40
2018-09-02T22:06:42.611Z,61.20
2018-09-02T22:09:15.183Z,60.90
2018-09-02T22:11:42.970Z,60.80
2018-09-02T22:14:10.895Z,61.30
2018-09-02T22:16:38.266Z,60.70
2018-09-02T22:19:05.778Z,61.90
2018-09-02T22:21:33.171Z,61.40
2018-09-02T22:24:00.586Z,61.50
2018-09-02T22:26:27.951Z,62.50
2018-09-02T22:28:55.376Z,62.10
2018-09-02T22:31:22.751Z,62.00
2018-09-02T22:33:50.171Z,62.00
2018-09-02T22:36:17.545Z,61.70
2018-09-02T22:38:44.969Z,63.40
2018-09-02T22:41:13.385Z,62.80
2018-09-02T22:43:40.805Z,63.20
2018-09-02T22:46:09.276Z,62.50
2018-09-02T22:48:36.684Z,62.20
2018-09-02T22:51:04.067Z,62.30
2018-09-02T22:53:31.470Z,64.20
2018-09-02T22:55:58.912Z,62.70
2018-09-02T22:58:26.180Z,63.10
2018-09-02T23:00:53.575Z,63.30
2018-09-02T23:03:20.905Z,63.20
2018-09-02T23:05:48.282Z,63.60
2018-09-02T23:08:15.651Z,63.80
2018-09-02T23:10:43.605Z,63.70
2018-09-02T23:13:10.989Z,62.60
2018-09-02T23:15:38.355Z,64.20
2018-09-02T23:18:05.855Z,64.10
2018-09-02T23:20:33.292Z,63.80
2018-09-02T23:23:00.724Z,64.60
2018-09-02T23:25:28.131Z,63.60
2018-09-02T23:27:55.482Z,65.00
2018-09-02T23:30:22.847Z,63.90
2018-09-02T23:32:50.190Z,65.00
2018-09-02T23:35:17.550Z,65.10
2018-09-02T23:37:44.931Z,64.60
2018-09-02T23:40:12.291Z,64.50
2018-09-02T23:42:39.652Z,65.30
2018-09-02T23:45:07.026Z,64.70
2018-09-02T23:47:34.392Z,64.90
2018-09-02T23:50:01.769Z,64.20
2018-09-02T23:52:29.116Z,65.80
2018-09-02T23:54:56.491Z,64.80
2018-09-02T23:57:23.867Z,65.20
2018-09-02T23:59:51.223Z,65.30
